Time;durP1;ratioP1;P1;durP2;ratioP2;P2;SDS_P1;SDS_P2;PMS_P1;PMS_P2;Temp;Humidity;BMP_temperature;BMP_pressure;BME280_temperature;BME280_humidity;BME280_pressure;Samples;Min_cycle;Max_cycle;Signal;HPM_P1;HPM_P2
2022/12/13 00:02:27;;;;;;;11.00;8.10;;;;;;;2.36;92.65;94335.19;5095216;28;20796;-77
2022/12/13 00:04:54;;;;;;;14.07;8.53;;;;;;;2.36;92.75;94325.66;5094108;28;20462;-77
2022/12/13 00:07:20;;;;;;;19.57;11.53;;;;;;;2.45;93.58;94329.44;5094008;28;20643;-77
2022/12/13 00:09:47;;;;;;;24.90;14.10;;;;;;;2.51;93.71;94328.19;5094423;28;20521;-76
2022/12/13 00:12:14;;;;;;;22.00;12.40;;;;;;;2.57;92.56;94333.81;5094474;28;20440;-75
2022/12/13 00:14:41;;;;;;;14.00;10.63;;;;;;;2.62;91.74;94336.16;5094134;28;20448;-76
2022/12/13 00:17:08;;;;;;;12.40;9.00;;;;;;;2.61;90.90;94345.69;5094359;28;20438;-77
2022/12/13 00:19:36;;;;;;;15.40;8.77;;;;;;;2.65;91.38;94346.31;5094441;28;20440;-77
2022/12/13 00:22:03;;;;;;;9.10;7.40;;;;;;;2.61;90.74;94337.09;5094140;28;20435;-76
2022/12/13 00:24:30;;;;;;;11.83;7.30;;;;;;;2.62;89.99;94336.16;5093907;28;20443;-77
2022/12/13 00:26:57;;;;;;;10.40;7.67;;;;;;;2.64;90.74;94345.47;5094302;28;20539;-77
2022/12/13 00:29:24;;;;;;;8.20;6.40;;;;;;;2.52;90.49;94351.41;5093764;28;20900;-77
2022/12/13 00:31:51;;;;;;;10.77;8.00;;;;;;;2.62;90.74;94347.34;5058742;28;20455;-75
2022/12/13 00:34:18;;;;;;;11.60;7.40;;;;;;;2.65;91.58;94341.13;5094135;28;20451;-76
2022/12/13 00:36:47;;;;;;;14.47;9.20;;;;;;;2.51;91.64;94343.75;5094417;28;20917;-77
2022/12/13 00:39:15;;;;;;;8.70;7.33;;;;;;;2.36;91.55;94341.19;5093865;28;20949;-77
2022/12/13 00:41:42;;;;;;;14.60;8.30;;;;;;;2.25;92.01;94342.75;5094077;28;20926;-77
2022/12/13 00:44:11;;;;;;;11.67;8.97;;;;;;;2.20;92.44;94345.63;5093759;28;20427;-77
2022/12/13 00:46:38;;;;;;;10.37;7.40;;;;;;;2.13;92.94;94341.75;5093861;28;21023;-76
2022/12/13 00:49:05;;;;;;;9.40;6.80;;;;;;;2.10;92.78;94349.72;5093819;28;20475;-76
2022/12/13 00:51:34;;;;;;;9.70;6.93;;;;;;;2.16;92.54;94354.50;5058341;28;20535;-77
2022/12/13 00:54:02;;;;;;;8.57;7.00;;;;;;;2.10;92.58;94344.53;5093588;28;20451;-76
2022/12/13 00:56:31;;;;;;;10.57;6.80;;;;;;;2.09;92.74;94353.22;5093899;28;20452;-76
2022/12/13 00:58:58;;;;;;;9.90;7.40;;;;;;;2.08;92.94;94336.88;5093869;28;20441;-76
2022/12/13 01:01:27;;;;;;;8.47;6.47;;;;;;;2.27;93.83;94354.69;5093822;28;20570;-76
2022/12/13 01:03:55;;;;;;;8.27;7.13;;;;;;;2.36;94.10;94356.72;5093452;28;20854;-77
2022/12/13 01:06:26;;;;;;;11.90;7.40;;;;;;;2.24;92.47;94354.88;5093993;28;20489;-76
2022/12/13 01:08:53;;;;;;;10.90;7.50;;;;;;;2.23;92.71;94360.13;5093705;28;20454;-76
2022/12/13 01:11:21;;;;;;;11.93;7.90;;;;;;;2.07;92.71;94342.97;5094085;28;20869;-76
2022/12/13 01:13:48;;;;;;;13.20;7.57;;;;;;;2.07;92.35;94348.16;5094224;28;20219;-76
2022/12/13 01:16:15;;;;;;;10.57;7.30;;;;;;;1.99;92.42;94352.94;5093602;28;20435;-76
2022/12/13 01:18:42;;;;;;;11.77;8.30;;;;;;;1.97;92.39;94351.34;5094035;28;20528;-76
2022/12/13 01:21:12;;;;;;;8.90;7.43;;;;;;;2.00;92.24;94353.75;5041544;28;20456;-77
2022/12/13 01:23:40;;;;;;;9.43;6.63;;;;;;;2.03;92.23;94364.78;5093508;28;20526;-77
2022/12/13 01:26:09;;;;;;;8.00;7.00;;;;;;;2.15;92.73;94361.44;5093390;28;20428;-76
2022/12/13 01:28:38;;;;;;;13.03;9.73;;;;;;;2.16;91.39;94364.88;5093550;28;20526;-76
2022/12/13 01:31:08;;;;;;;16.67;10.00;;;;;;;2.02;91.31;94357.91;5093104;28;20793;-76
2022/12/13 01:33:36;;;;;;;13.57;9.40;;;;;;;1.99;91.15;94350.34;5093282;28;20444;-77
2022/12/13 01:36:05;;;;;;;9.90;7.10;;;;;;;1.99;91.38;94354.69;5094031;28;20618;-76
2022/12/13 01:38:32;;;;;;;11.65;8.57;;;;;;;1.96;91.13;94354.88;5097005;28;20959;-76
2022/12/13 01:40:59;;;;;;;9.38;7.35;;;;;;;1.92;91.64;94359.41;5097282;28;20201;-77
2022/12/13 01:43:28;;;;;;;6.87;6.20;;;;;;;1.92;91.42;94343.03;5097358;28;20208;-77
2022/12/13 01:45:56;;;;;;;9.05;6.72;;;;;;;1.80;93.01;94345.47;5097430;28;20496;-76
2022/12/13 01:48:27;;;;;;;8.55;7.07;;;;;;;1.81;93.38;94351.47;5044660;28;20245;-77
2022/12/13 01:50:59;;;;;;;12.95;7.45;;;;;;;1.83;92.95;94339.25;5097419;28;20633;-77
2022/12/13 01:53:30;;;;;;;8.93;6.93;;;;;;;1.80;92.59;94345.47;5097189;28;20222;-76
2022/12/13 01:56:02;;;;;;;9.95;7.80;;;;;;;1.85;92.04;94348.59;5096970;28;20212;-76
2022/12/13 01:58:32;;;;;;;11.13;7.27;;;;;;;1.85;91.89;94351.19;5096999;28;20212;-77
2022/12/13 02:01:01;;;;;;;11.20;7.30;;;;;;;1.82;91.85;94356.53;5097202;28;20440;-76
2022/12/13 02:03:30;;;;;;;17.67;8.70;;;;;;;1.92;92.36;94361.16;5096706;28;20195;-77
2022/12/13 02:06:01;;;;;;;14.43;8.90;;;;;;;2.04;91.79;94363.03;5097301;28;20190;-76
2022/12/13 02:08:29;;;;;;;9.65;7.80;;;;;;;2.10;91.78;94363.47;5096921;28;20486;-76
2022/12/13 02:10:57;;;;;;;12.17;7.90;;;;;;;2.23;91.10;94360.97;5096313;28;20201;-76
2022/12/13 02:13:23;;;;;;;14.20;8.30;;;;;;;2.26;91.42;94368.53;5096870;28;20463;-76
2022/12/13 02:15:59;;;;;;;9.97;7.00;;;;;;;2.31;89.87;94363.09;5061334;28;20946;-77
2022/12/13 02:18:42;;;;;;;12.90;8.80;;;;;;;2.38;90.09;94366.97;5096956;28;20452;-76
2022/12/13 02:21:28;;;;;;;8.97;7.20;;;;;;;2.46;89.53;94368.16;5096409;28;20433;-76
2022/12/13 02:24:22;;;;;;;9.10;7.47;;;;;;;2.57;87.56;94358.88;5044228;28;20454;-77
2022/12/13 02:27:00;;;;;;;10.40;8.07;;;;;;;2.63;87.87;94359.38;5096386;28;20475;-77
2022/12/13 02:30:07;;;;;;;11.90;8.00;;;;;;;2.67;88.30;94355.66;5096235;28;20518;-76
2022/12/13 02:32:42;;;;;;;10.93;7.80;;;;;;;2.73;87.86;94364.78;5077496;28;20431;-77
2022/12/13 02:35:15;;;;;;;11.20;7.60;;;;;;;2.76;88.65;94360.25;5096299;28;20439;-76
2022/12/13 02:37:51;;;;;;;14.73;8.30;;;;;;;2.77;87.75;94376.63;5043930;28;20453;-77
2022/12/13 02:40:26;;;;;;;16.10;8.30;;;;;;;2.75;87.83;94381.91;5044336;28;20452;-76
2022/12/13 02:43:01;;;;;;;9.60;7.30;;;;;;;2.67;88.23;94383.31;5095863;28;20443;-76
2022/12/13 02:45:32;;;;;;;12.10;6.77;;;;;;;2.63;88.58;94380.09;5096128;28;20492;-78
2022/12/13 02:48:03;;;;;;;12.43;7.70;;;;;;;2.58;88.53;94383.84;5095134;28;20509;-76
2022/12/13 02:50:32;;;;;;;11.03;7.20;;;;;;;2.55;88.97;94377.13;5095787;28;20453;-76
2022/12/13 02:53:01;;;;;;;8.67;6.93;;;;;;;2.55;89.06;94378.88;5095598;28;20986;-77
2022/12/13 02:55:28;;;;;;;10.47;7.77;;;;;;;2.57;89.24;94379.59;5095893;28;20871;-77
2022/12/13 02:57:55;;;;;;;12.73;8.43;;;;;;;2.63;88.34;94387.03;5060698;28;20466;-77
2022/12/13 03:00:28;;;;;;;17.53;8.77;;;;;;;2.64;87.88;94380.91;5095898;28;20451;-77
2022/12/13 03:03:11;;;;;;;11.47;7.53;;;;;;;2.66;88.57;94384.25;5096209;28;20520;-77
2022/12/13 03:08:39;;;;;;;12.17;7.80;;;;;;;2.68;87.75;94397.91;5095203;28;20512;-76
2022/12/13 03:11:09;;;;;;;9.30;6.73;;;;;;;2.60;87.43;94398.41;5095283;28;20455;-76
2022/12/13 03:13:47;;;;;;;11.60;8.10;;;;;;;2.54;86.85;94390.16;5096020;28;20489;-76
2022/12/13 03:16:35;;;;;;;14.53;9.20;;;;;;;2.46;87.48;94388.06;5042923;28;20447;-76
2022/12/13 03:19:06;;;;;;;10.23;8.10;;;;;;;2.49;86.99;94390.44;5095784;28;21006;-77
2022/12/13 03:21:39;;;;;;;10.63;8.17;;;;;;;2.46;86.53;94383.69;5094914;28;20951;-77
2022/12/13 03:24:06;;;;;;;10.23;6.97;;;;;;;2.40;86.36;94386.66;5095194;28;20848;-77
2022/12/13 03:26:34;;;;;;;9.03;7.47;;;;;;;2.42;86.69;94382.22;5094837;28;20447;-77
2022/12/13 03:29:01;;;;;;;11.77;8.10;;;;;;;2.37;86.45;94383.44;5095093;28;20436;-76
2022/12/13 03:31:27;;;;;;;7.43;6.73;;;;;;;2.31;86.45;94374.28;5094519;28;20443;-76
2022/12/13 03:33:54;;;;;;;8.40;6.50;;;;;;;2.34;86.05;94381.88;5059781;28;20451;-76
2022/12/13 03:36:22;;;;;;;11.13;7.70;;;;;;;2.38;86.36;94385.09;5043154;28;20452;-77
2022/12/13 03:38:52;;;;;;;9.93;8.03;;;;;;;2.33;86.15;94387.97;5094421;28;20450;-77
2022/12/13 03:41:21;;;;;;;13.93;7.87;;;;;;;2.25;86.01;94390.19;5094074;28;20479;-77
2022/12/13 03:43:49;;;;;;;11.73;8.43;;;;;;;2.25;86.76;94384.16;5094314;28;20454;-77
2022/12/13 03:46:15;;;;;;;13.90;8.37;;;;;;;2.19;86.80;94385.38;5094161;28;20446;-77
2022/12/13 03:48:42;;;;;;;13.70;8.97;;;;;;;2.06;87.05;94387.06;5094552;28;20544;-76
2022/12/13 03:51:09;;;;;;;12.77;8.30;;;;;;;2.06;88.13;94381.88;5094281;28;20507;-77
2022/12/13 03:53:37;;;;;;;13.33;8.77;;;;;;;2.09;88.12;94389.44;5094044;28;20451;-76
2022/12/13 03:56:06;;;;;;;11.63;8.63;;;;;;;2.12;87.89;94389.25;5094157;28;20435;-76
2022/12/13 03:58:34;;;;;;;11.80;7.47;;;;;;;2.17;87.88;94397.59;5093521;28;20444;-76
2022/12/13 04:01:01;;;;;;;12.50;8.77;;;;;;;2.19;87.66;94400.91;5093576;28;20445;-76
2022/12/13 04:03:28;;;;;;;10.10;7.57;;;;;;;2.23;87.32;94394.63;5093682;28;20454;-76
2022/12/13 04:05:54;;;;;;;11.80;7.80;;;;;;;2.29;87.57;94402.00;5094052;28;20954;-77
2022/12/13 04:08:21;;;;;;;10.43;6.70;;;;;;;2.21;86.53;94396.47;5093589;28;21121;-76
2022/12/13 04:10:49;;;;;;;14.80;8.40;;;;;;;2.20;86.88;94410.34;5094319;28;20213;-77
2022/12/13 04:13:33;;;;;;;12.80;8.50;;;;;;;2.16;86.97;94408.84;5094069;28;20482;-77
2022/12/13 04:16:01;;;;;;;11.77;8.37;;;;;;;2.06;87.14;94420.69;5094646;28;20248;-77
2022/12/13 04:18:28;;;;;;;16.80;10.23;;;;;;;2.03;87.09;94420.88;5093861;28;20454;-77
2022/12/13 04:20:56;;;;;;;16.03;10.07;;;;;;;1.95;87.10;94434.25;5094131;28;20483;-76
2022/12/13 04:23:23;;;;;;;14.73;11.17;;;;;;;1.91;87.00;94429.34;5093865;28;20432;-77
2022/12/13 04:25:51;;;;;;;19.57;11.10;;;;;;;1.90;86.95;94435.44;5094280;28;21013;-77
2022/12/13 04:28:18;;;;;;;15.70;11.27;;;;;;;1.90;86.92;94446.63;5094086;28;20496;-76
2022/12/13 04:30:45;;;;;;;15.93;9.80;;;;;;;1.83;86.83;94440.97;5084511;28;20449;-77
2022/12/13 04:33:11;;;;;;;26.23;15.60;;;;;;;1.84;87.56;94449.56;5073638;28;20465;-75
2022/12/13 04:35:38;;;;;;;27.00;15.70;;;;;;;1.79;87.16;94449.00;5073779;28;20439;-76
2022/12/13 04:38:05;;;;;;;25.70;14.37;;;;;;;1.72;87.01;94464.03;5073885;28;20435;-76
2022/12/13 04:40:32;;;;;;;24.00;14.00;;;;;;;1.59;86.61;94470.00;5073570;28;20454;-76
2022/12/13 04:43:00;;;;;;;22.23;12.68;;;;;;;1.22;87.49;94470.31;5073693;28;20425;-76
2022/12/13 04:45:27;;;;;;;17.33;11.73;;;;;;;0.95;88.12;94465.81;5073339;28;20266;-76
2022/12/13 04:47:54;;;;;;;15.68;10.82;;;;;;;0.82;89.30;94468.22;5073355;28;20242;-76
2022/12/13 04:50:20;;;;;;;20.83;11.85;;;;;;;0.67;90.01;94469.03;5073030;28;20202;-77
2022/12/13 04:52:47;;;;;;;16.13;11.80;;;;;;;0.61;90.89;94468.47;5073734;28;20240;-76
2022/12/13 04:55:14;;;;;;;19.08;10.70;;;;;;;0.65;92.04;94474.28;5083895;28;20217;-76
2022/12/13 04:57:41;;;;;;;15.32;10.30;;;;;;;0.60;91.27;94476.28;5081920;28;20235;-75
2022/12/13 05:00:13;;;;;;;15.57;10.07;;;;;;;0.65;91.20;94478.63;5073286;28;20255;-76
2022/12/13 05:02:41;;;;;;;21.70;11.98;;;;;;;0.65;91.27;94479.47;5017874;28;20655;-76
2022/12/13 05:05:08;;;;;;;22.63;12.15;;;;;;;0.68;91.41;94466.38;5073303;28;20226;-76
2022/12/13 05:07:35;;;;;;;15.82;12.30;;;;;;;0.75;91.94;94469.47;5077748;28;20300;-76
2022/12/13 05:10:02;;;;;;;21.30;13.95;;;;;;;0.85;91.79;94481.78;5093438;28;20279;-78
2022/12/13 05:12:29;;;;;;;27.42;15.18;;;;;;;0.91;91.15;94475.47;5097283;28;20203;-76
2022/12/13 05:14:56;;;;;;;23.55;15.40;;;;;;;0.97;90.08;94490.66;5097406;28;20208;-77
2022/12/13 05:17:24;;;;;;;26.23;13.85;;;;;;;1.02;89.60;94488.63;5097707;28;20625;-77
2022/12/13 05:19:51;;;;;;;27.07;13.10;;;;;;;1.06;89.11;94494.47;5098494;28;20201;-78
2022/12/13 05:22:17;;;;;;;21.98;12.60;;;;;;;1.12;89.03;94492.38;5097412;28;20447;-79
2022/12/13 05:24:44;;;;;;;21.25;10.75;;;;;;;1.15;88.76;94499.13;5097296;28;20214;-77
2022/12/13 05:27:12;;;;;;;22.85;12.88;;;;;;;1.17;88.71;94495.56;5097985;28;20231;-77
2022/12/13 05:29:39;;;;;;;24.17;12.15;;;;;;;1.22;88.52;94503.06;5098199;28;20203;-78
2022/12/13 05:32:06;;;;;;;16.47;11.13;;;;;;;1.24;89.01;94498.66;5097374;28;20589;-78
2022/12/13 05:34:34;;;;;;;16.27;12.35;;;;;;;1.20;88.50;94500.56;5098669;28;20441;-81
2022/12/13 05:37:01;;;;;;;23.92;13.93;;;;;;;1.20;89.20;94503.16;5097537;28;20254;-79
2022/12/13 05:39:27;;;;;;;25.58;15.80;;;;;;;1.18;88.05;94504.16;5097316;28;20205;-77
2022/12/13 05:41:55;;;;;;;29.98;15.27;;;;;;;1.07;87.71;94524.56;5097125;28;20537;-77
2022/12/13 05:44:22;;;;;;;22.55;14.23;;;;;;;1.06;87.06;94515.97;5097465;28;20241;-77
2022/12/13 05:46:49;;;;;;;31.05;17.92;;;;;;;1.06;87.41;94525.47;5097151;28;20194;-77
2022/12/13 05:49:15;;;;;;;31.35;22.70;;;;;;;1.04;87.87;94524.72;5097211;28;20218;-76
2022/12/13 05:51:44;;;;;;;28.73;19.88;;;;;;;1.09;87.71;94530.47;5096765;28;20682;-77
2022/12/13 05:54:10;;;;;;;26.67;15.35;;;;;;;1.09;87.69;94536.47;5097012;28;20197;-76
2022/12/13 05:56:37;;;;;;;22.38;14.23;;;;;;;1.12;87.13;94538.06;5096960;28;20585;-78
2022/12/13 05:59:04;;;;;;;22.25;14.02;;;;;;;1.05;86.58;94537.56;5096022;28;20458;-75
2022/12/13 06:01:31;;;;;;;21.20;13.43;;;;;;;1.07;85.23;94537.47;5096820;28;20192;-77
2022/12/13 06:03:57;;;;;;;21.67;13.00;;;;;;;1.04;85.72;94541.06;5083818;28;20197;-77
2022/12/13 06:06:24;;;;;;;19.58;12.52;;;;;;;1.08;85.19;94539.97;5076405;28;20187;-77
2022/12/13 06:12:15;;;;;;;21.27;14.20;;;;;;;1.36;86.03;94546.22;5076273;28;20421;-76
2022/12/13 06:14:41;;;;;;;20.58;14.32;;;;;;;1.44;85.10;94544.06;5094425;28;20210;-78
2022/12/13 06:17:08;;;;;;;19.88;13.98;;;;;;;1.52;84.92;94552.25;5096296;28;20239;-76
2022/12/13 06:19:35;;;;;;;27.20;15.30;;;;;;;1.61;84.63;94556.06;5095870;28;20196;-76
2022/12/13 06:22:02;;;;;;;31.50;21.80;;;;;;;1.63;84.34;94552.47;5093399;28;20433;-76
2022/12/13 06:24:28;;;;;;;40.77;27.97;;;;;;;1.50;83.95;94552.34;5080878;28;20923;-77
2022/12/13 06:26:55;;;;;;;28.70;18.67;;;;;;;1.17;84.53;94539.50;5096771;28;20463;-76
2022/12/13 06:29:23;;;;;;;31.50;20.60;;;;;;;1.29;84.63;94545.75;5096437;28;20495;-75
2022/12/13 06:31:56;;;;;;;28.47;19.57;;;;;;;1.20;85.44;94534.16;5094660;28;20214;-77
2022/12/13 06:34:23;;;;;;;30.98;17.30;;;;;;;1.07;85.80;94540.06;5088996;28;20437;-77
2022/12/13 06:36:50;;;;;;;19.60;13.27;;;;;;;1.08;84.75;94545.13;5042067;28;20207;-76
2022/12/13 06:39:17;;;;;;;19.35;13.70;;;;;;;1.10;84.11;94545.06;5096349;28;21192;-77
2022/12/13 06:41:45;;;;;;;17.02;11.63;;;;;;;1.17;83.99;94549.84;5096852;28;20203;-77
2022/12/13 06:44:12;;;;;;;18.20;11.82;;;;;;;1.32;84.44;94562.84;5095846;28;20204;-76
2022/12/13 06:46:40;;;;;;;18.17;12.00;;;;;;;1.47;84.27;94565.44;5096281;28;20200;-76
2022/12/13 06:49:07;;;;;;;20.52;14.43;;;;;;;1.54;86.32;94571.09;5045364;28;20227;-77
2022/12/13 06:51:34;;;;;;;27.50;15.13;;;;;;;1.48;84.11;94566.25;5104467;28;20204;-78
2022/12/13 06:54:02;;;;;;;32.75;21.25;;;;;;;1.46;83.10;94565.53;5114991;28;20199;-76
2022/12/13 06:56:29;;;;;;;33.88;19.52;;;;;;;1.51;83.09;94563.50;5115367;28;20203;-76
2022/12/13 06:58:56;;;;;;;22.63;15.75;;;;;;;1.50;82.97;94565.25;5063263;28;20196;-75
2022/12/13 07:01:23;;;;;;;21.17;14.82;;;;;;;1.53;83.69;94565.09;5114782;28;20203;-76
2022/12/13 07:03:51;;;;;;;20.20;12.95;;;;;;;1.45;81.89;94563.84;5116444;28;20218;-75
2022/12/13 07:06:24;;;;;;;20.75;13.80;;;;;;;1.43;82.08;94568.25;5116119;28;20209;-76
2022/12/13 07:08:53;;;;;;;20.13;13.27;;;;;;;1.21;82.50;94577.19;5064128;28;20222;-75
2022/12/13 07:11:22;;;;;;;29.95;16.13;;;;;;;1.10;82.29;94574.31;5116324;28;20201;-75
2022/12/13 07:13:49;;;;;;;21.33;13.82;;;;;;;1.03;81.83;94579.88;5115947;28;20197;-76
2022/12/13 07:16:15;;;;;;;25.02;14.13;;;;;;;0.92;83.57;94578.72;5115527;28;20197;-75
2022/12/13 07:18:42;;;;;;;18.65;12.82;;;;;;;1.13;84.50;94584.47;5114432;28;20209;-75
2022/12/13 07:21:12;;;;;;;23.65;14.75;;;;;;;1.34;85.37;94581.66;5108497;28;20233;-75
2022/12/13 07:23:40;;;;;;;25.52;15.02;;;;;;;1.54;84.84;94579.69;5108918;28;20292;-76
2022/12/13 07:26:08;;;;;;;23.35;14.93;;;;;;;1.65;82.92;94592.00;5105392;28;20205;-76
2022/12/13 07:28:36;;;;;;;22.85;14.07;;;;;;;1.60;82.13;94591.44;5110309;28;20221;-76
2022/12/13 07:31:06;;;;;;;23.05;15.48;;;;;;;1.62;81.52;94602.53;5113838;28;20207;-75
2022/12/13 07:33:33;;;;;;;27.08;16.83;;;;;;;1.67;82.20;94605.69;5112291;28;20200;-76
2022/12/13 07:36:01;;;;;;;27.30;17.15;;;;;;;1.67;81.92;94605.69;5110043;28;20202;-76
2022/12/13 07:38:29;;;;;;;33.45;19.40;;;;;;;1.79;81.88;94604.19;5109639;28;20661;-75
2022/12/13 07:40:57;;;;;;;33.83;21.20;;;;;;;1.85;82.45;94609.84;5095720;28;20210;-75
2022/12/13 07:43:25;;;;;;;33.50;18.70;;;;;;;1.95;83.08;94599.81;5094137;28;20207;-76
2022/12/13 07:45:51;;;;;;;25.57;16.50;;;;;;;2.01;82.84;94615.00;5094010;28;20212;-76
2022/12/13 07:48:18;;;;;;;22.20;15.40;;;;;;;2.16;82.29;94602.97;5094267;28;20974;-75
2022/12/13 07:50:45;;;;;;;29.20;16.77;;;;;;;2.27;82.90;94608.34;5093874;28;20453;-76
2022/12/13 07:53:12;;;;;;;22.60;15.50;;;;;;;2.42;81.91;94604.91;5093525;28;20205;-75
2022/12/13 07:55:40;;;;;;;21.67;14.83;;;;;;;2.48;81.03;94609.72;5093019;28;20443;-75
2022/12/13 07:58:09;;;;;;;24.77;15.73;;;;;;;2.44;78.33;94612.56;5041256;28;20444;-76
2022/12/13 08:00:37;;;;;;;29.90;15.67;;;;;;;2.37;77.44;94614.69;5057753;28;20444;-76
2022/12/13 08:03:04;;;;;;;22.37;16.03;;;;;;;2.32;78.04;94621.06;5093718;28;20925;-75
2022/12/13 08:05:31;;;;;;;22.83;15.07;;;;;;;2.45;78.15;94624.59;5057733;28;20436;-77
2022/12/13 08:08:00;;;;;;;26.40;17.97;;;;;;;2.42;76.57;94625.63;5093328;28;20960;-76
2022/12/13 08:10:27;;;;;;;30.47;18.90;;;;;;;2.54;78.26;94623.22;5093615;28;20504;-76
2022/12/13 08:12:55;;;;;;;31.27;19.77;;;;;;;2.63;78.95;94627.91;5093236;28;20443;-76
2022/12/13 08:15:23;;;;;;;27.97;17.70;;;;;;;2.65;77.76;94626.88;5093291;28;20494;-74
2022/12/13 08:17:50;;;;;;;24.90;17.50;;;;;;;2.69;77.05;94628.38;5092773;28;20456;-76
2022/12/13 08:20:18;;;;;;;23.30;16.60;;;;;;;2.78;77.53;94626.97;5092868;28;20449;-76
2022/12/13 08:22:45;;;;;;;27.17;16.17;;;;;;;2.84;77.39;94631.81;5092755;28;20444;-76
2022/12/13 08:25:12;;;;;;;20.57;12.33;;;;;;;2.84;75.09;94625.78;5092768;28;20455;-76
2022/12/13 08:27:38;;;;;;;19.00;12.50;;;;;;;2.79;75.71;94633.84;5092789;28;20942;-76
2022/12/13 08:30:08;;;;;;;29.70;19.03;;;;;;;2.76;76.29;94636.59;5092461;28;20604;-76
2022/12/13 08:32:35;;;;;;;22.67;16.57;;;;;;;2.59;75.49;94642.75;5040833;28;20455;-76
2022/12/13 08:35:01;;;;;;;26.47;18.50;;;;;;;2.62;77.35;94628.81;5092884;28;20512;-76
2022/12/13 08:37:28;;;;;;;18.37;12.37;;;;;;;2.57;77.99;94613.53;5092300;28;20447;-76
2022/12/13 08:39:55;;;;;;;20.37;12.63;;;;;;;2.64;76.84;94619.19;5092270;28;20454;-76
2022/12/13 08:42:23;;;;;;;19.30;13.30;;;;;;;2.58;74.83;94615.19;5092614;28;20443;-76
2022/12/13 08:44:51;;;;;;;26.47;14.83;;;;;;;2.35;74.14;94613.94;5092017;28;20450;-76
2022/12/13 08:47:21;;;;;;;18.97;12.93;;;;;;;2.26;74.62;94613.63;5092326;28;20833;-76
2022/12/13 08:49:48;;;;;;;29.88;16.38;;;;;;;2.31;76.77;94612.44;5092300;28;20784;-75
2022/12/13 08:52:14;;;;;;;33.60;18.23;;;;;;;2.43;78.30;94603.97;5092510;28;20201;-77
2022/12/13 08:54:43;;;;;;;25.47;14.30;;;;;;;2.47;75.79;94599.44;5092452;28;20511;-77
2022/12/13 08:57:09;;;;;;;27.03;13.10;;;;;;;2.47;75.32;94600.28;5092419;28;20515;-75
2022/12/13 08:59:36;;;;;;;19.90;13.57;;;;;;;2.60;76.07;94595.25;5092328;28;20449;-77
2022/12/13 09:02:03;;;;;;;19.17;12.60;;;;;;;2.72;75.48;94591.91;5092611;28;20442;-76
2022/12/13 09:04:31;;;;;;;25.60;14.50;;;;;;;2.73;73.81;94595.34;5092946;28;20448;-76
2022/12/13 09:06:58;;;;;;;17.63;12.63;;;;;;;2.48;72.48;94599.34;5092780;28;20500;-76
2022/12/13 09:09:27;;;;;;;22.83;14.83;;;;;;;2.37;72.26;94596.56;5092466;28;20489;-76
2022/12/13 09:11:54;;;;;;;23.70;13.20;;;;;;;2.36;73.75;94594.91;5092438;28;20453;-77
2022/12/13 09:14:21;;;;;;;19.37;14.13;;;;;;;2.20;74.35;94598.44;5039780;28;20482;-77
2022/12/13 09:16:48;;;;;;;23.60;14.10;;;;;;;2.29;76.86;94588.38;5092083;28;20527;-75
2022/12/13 09:19:15;;;;;;;23.97;14.80;;;;;;;2.43;78.24;94585.84;5091915;28;20462;-75
2022/12/13 09:21:43;;;;;;;18.87;13.73;;;;;;;2.54;76.28;94582.63;5091909;28;20500;-76
2022/12/13 09:24:10;;;;;;;23.50;14.17;;;;;;;2.65;76.99;94576.84;5091863;28;20444;-76
2022/12/13 09:26:36;;;;;;;24.47;14.47;;;;;;;2.70;78.18;94567.03;5091645;28;20846;-76
2022/12/13 09:29:03;;;;;;;22.30;13.70;;;;;;;2.84;77.16;94576.56;5091796;28;20887;-77
2022/12/13 09:31:33;;;;;;;19.90;13.63;;;;;;;2.98;77.40;94576.56;5039290;28;20856;-77
2022/12/13 09:34:00;;;;;;;19.47;12.17;;;;;;;3.02;75.82;94563.34;5091605;28;20999;-76
2022/12/13 09:36:27;;;;;;;20.27;13.07;;;;;;;3.18;74.13;94568.44;5091653;28;20460;-76
2022/12/13 09:38:57;;;;;;;20.43;12.20;;;;;;;3.33;75.04;94569.22;5091430;28;20443;-76
2022/12/13 09:41:29;;;;;;;16.20;11.87;;;;;;;3.51;73.97;94567.28;5091766;28;20444;-76
2022/12/13 09:44:00;;;;;;;16.90;11.10;;;;;;;3.70;75.89;94559.97;5091739;28;20444;-76
2022/12/13 09:46:31;;;;;;;17.17;10.70;;;;;;;3.77;72.22;94558.69;5091733;28;20477;-76
2022/12/13 09:48:59;;;;;;;20.10;12.57;;;;;;;3.84;71.11;94559.13;5091348;28;20885;-77
2022/12/13 09:51:26;;;;;;;21.20;11.20;;;;;;;3.82;69.21;94558.38;5091814;28;20444;-75
2022/12/13 09:53:55;;;;;;;18.07;13.00;;;;;;;3.77;68.67;94568.22;5091859;28;20443;-76
2022/12/13 09:56:23;;;;;;;17.70;13.10;;;;;;;3.63;66.05;94556.94;5092033;28;20440;-75
2022/12/13 09:58:52;;;;;;;19.80;13.17;;;;;;;3.65;66.88;94562.88;5094825;28;20504;-76
2022/12/13 10:01:20;;;;;;;16.47;11.10;;;;;;;3.54;65.11;94554.09;5095387;28;20436;-77
2022/12/13 10:03:49;;;;;;;18.30;11.77;;;;;;;3.35;66.46;94559.59;5095261;28;20915;-76
2022/12/13 10:06:18;;;;;;;17.67;12.40;;;;;;;3.12;67.23;94553.22;5095178;28;20883;-76
2022/12/13 10:08:47;;;;;;;19.70;12.80;;;;;;;2.92;68.91;94545.84;5094844;28;20505;-77
2022/12/13 10:11:17;;;;;;;23.40;11.00;;;;;;;2.91;70.47;94550.22;5094612;28;20516;-77
2022/12/13 10:13:48;;;;;;;12.97;10.37;;;;;;;3.00;70.75;94549.63;5094984;28;20447;-76
2022/12/13 10:16:23;;;;;;;16.27;11.07;;;;;;;2.96;69.68;94536.97;5094855;28;20464;-75
2022/12/13 10:18:51;;;;;;;17.80;11.23;;;;;;;3.00;69.47;94534.09;5094532;28;20447;-76
2022/12/13 10:21:22;;;;;;;15.93;11.50;;;;;;;2.91;68.81;94534.66;5094853;28;20446;-75
2022/12/13 10:23:49;;;;;;;14.97;10.23;;;;;;;3.02;69.54;94540.00;5058986;28;20463;-76
2022/12/13 10:26:17;;;;;;;17.50;11.33;;;;;;;3.19;71.06;94522.59;5094742;28;20444;-75
2022/12/13 10:28:44;;;;;;;19.47;12.20;;;;;;;3.26;70.66;94529.06;5095138;28;20452;-76
2022/12/13 10:31:17;;;;;;;17.87;11.23;;;;;;;3.29;71.56;94531.47;5094678;28;20448;-76
2022/12/13 10:33:54;;;;;;;18.47;11.50;;;;;;;3.36;71.00;94522.38;5094623;28;20448;-75
2022/12/13 10:36:32;;;;;;;16.20;11.33;;;;;;;3.47;70.14;94506.97;5094650;28;20482;-76
2022/12/13 10:38:59;;;;;;;16.60;10.10;;;;;;;3.38;67.58;94504.94;5094703;28;20447;-75
2022/12/13 10:41:33;;;;;;;18.37;12.80;;;;;;;3.30;69.14;94497.66;5094551;28;20843;-76
2022/12/13 10:44:19;;;;;;;17.23;11.10;;;;;;;3.19;67.17;94504.47;5094281;28;20988;-76
2022/12/13 10:46:52;;;;;;;18.40;11.13;;;;;;;3.10;69.02;94496.31;5093759;28;20471;-76
2022/12/13 10:49:22;;;;;;;18.43;11.73;;;;;;;3.25;69.34;94493.69;5094100;28;20472;-75
2022/12/13 10:51:50;;;;;;;22.23;14.47;;;;;;;3.26;70.65;94491.00;5094265;28;20475;-76
2022/12/13 10:54:25;;;;;;;20.77;13.83;;;;;;;3.30;68.65;94489.03;5093931;28;20452;-76
2022/12/13 10:56:58;;;;;;;18.60;13.57;;;;;;;3.19;69.14;94481.13;5094147;28;20444;-77
2022/12/13 10:59:30;;;;;;;20.73;13.40;;;;;;;3.14;68.23;94489.16;5093703;28;20534;-76
2022/12/13 11:01:58;;;;;;;17.30;12.53;;;;;;;3.13;68.75;94473.72;5093971;28;20950;-76
2022/12/13 11:04:28;;;;;;;23.93;15.47;;;;;;;3.11;71.71;94482.41;5093979;28;20450;-76
2022/12/13 11:06:56;;;;;;;21.33;13.90;;;;;;;3.08;71.83;94469.66;5093893;28;20489;-75
2022/12/13 11:09:29;;;;;;;23.40;15.47;;;;;;;3.11;72.34;94479.00;5093433;28;21027;-75
2022/12/13 11:12:00;;;;;;;27.03;14.90;;;;;;;3.04;72.32;94470.78;5093978;28;20444;-74
2022/12/13 11:14:31;;;;;;;24.80;17.43;;;;;;;3.04;73.71;94465.59;5093966;28;20505;-75
2022/12/13 11:17:00;;;;;;;25.33;17.10;;;;;;;3.07;73.50;94465.38;5093628;28;21162;-74
2022/12/13 11:19:36;;;;;;;22.07;14.60;;;;;;;3.05;72.91;94469.00;5093781;28;20948;-76
2022/12/13 11:22:03;;;;;;;21.07;13.50;;;;;;;3.14;73.24;94454.63;5094038;28;20486;-76
2022/12/13 11:24:33;;;;;;;20.43;12.10;;;;;;;3.17;71.99;94447.50;5093363;28;20452;-75
2022/12/13 11:27:14;;;;;;;24.10;13.70;;;;;;;3.30;72.07;94461.34;5093987;28;20470;-76
2022/12/13 11:29:54;;;;;;;22.47;13.70;;;;;;;3.40;70.51;94459.00;5093459;28;20483;-76
2022/12/13 11:32:31;;;;;;;27.50;13.63;;;;;;;3.34;69.66;94449.84;5093649;28;20451;-75
2022/12/13 11:35:09;;;;;;;16.50;12.03;;;;;;;3.39;70.54;94454.75;5093764;28;20474;-76
2022/12/13 11:37:45;;;;;;;18.40;11.87;;;;;;;3.53;70.70;94453.88;5043744;28;20447;-74
2022/12/13 11:40:17;;;;;;;18.67;14.03;;;;;;;3.54;69.54;94458.97;5093808;28;20454;-75
2022/12/13 11:42:49;;;;;;;21.30;12.00;;;;;;;3.47;69.53;94464.63;5093590;28;20452;-75
2022/12/13 11:45:22;;;;;;;17.70;13.50;;;;;;;3.44;71.10;94470.84;5093426;28;20450;-74